Time;durP1;ratioP1;P1;durP2;ratioP2;P2;SDS_P1;SDS_P2;PMS_P1;PMS_P2;Temp;Humidity;BMP_temperature;BMP_pressure;BME280_temperature;BME280_humidity;BME280_pressure;Samples;Min_cycle;Max_cycle;Signal;HPM_P1;HPM_P2
2021/10/09 00:02:18;;;;;;;7.40;3.10;;;;;;;;;;4901986;29;20040;-86
2021/10/09 00:04:44;;;;;;;4.88;3.72;;;;;;;;;;4899769;29;20031;-86
2021/10/09 00:07:10;;;;;;;10.30;5.40;;;;;;;;;;4896979;29;20187;-86
2021/10/09 00:09:36;;;;;;;8.77;4.50;;;;;;;;;;4888322;29;20128;-87
2021/10/09 00:12:02;;;;;;;5.57;3.85;;;;;;;;;;4903778;29;20020;-86
2021/10/09 00:14:28;;;;;;;6.38;3.70;;;;;;;;;;4876626;29;20107;-86
2021/10/09 00:16:54;;;;;;;9.80;3.78;;;;;;;;;;4900260;29;20062;-87
2021/10/09 00:19:20;;;;;;;7.05;4.30;;;;;;;;;;4916688;29;20056;-86
2021/10/09 00:21:46;;;;;;;9.85;4.13;;;;;;;;;;4902254;29;20110;-86
2021/10/09 00:24:12;;;;;;;9.00;4.40;;;;;;;;;;4919625;29;20485;-87
2021/10/09 00:26:38;;;;;;;9.05;5.30;;;;;;;;;;4921059;29;20135;-85
2021/10/09 00:29:04;;;;;;;5.60;3.22;;;;;;;;;;4925072;29;20034;-86
2021/10/09 00:31:30;;;;;;;9.77;5.20;;;;;;;;;;4919867;29;20036;-87
2021/10/09 00:33:56;;;;;;;5.45;4.05;;;;;;;;;;4917448;29;20031;-86
2021/10/09 00:36:22;;;;;;;6.85;3.78;;;;;;;;;;4897967;29;20051;-87
2021/10/09 00:38:48;;;;;;;13.98;4.80;;;;;;;;;;4896834;29;20037;-86
2021/10/09 00:41:14;;;;;;;8.90;4.60;;;;;;;;;;4926906;29;20059;-87
2021/10/09 00:43:40;;;;;;;7.93;4.13;;;;;;;;;;4924732;29;20126;-86
2021/10/09 00:46:07;;;;;;;7.45;3.78;;;13.70;79.70;;;;;;4895425;29;20466;-86
2021/10/09 00:48:34;;;;;;;7.38;3.75;;;;;;;;;;4918301;29;20406;-85
2021/10/09 00:51:00;;;;;;;5.43;3.70;;;;;;;;;;4919039;29;20028;-85
2021/10/09 00:53:26;;;;;;;11.40;4.93;;;;;;;;;;4906659;29;20036;-87
2021/10/09 00:55:54;;;;;;;8.75;4.60;;;13.50;80.30;;;;;;4924006;29;20038;-87
2021/10/09 00:58:21;;;;;;;;;;;13.50;80.50;;;;;;4915901;29;20043;-87
2021/10/09 01:00:47;;;;;;;5.13;4.15;;;13.50;80.40;;;;;;4909377;29;20330;-86
2021/10/09 01:03:13;;;;;;;6.35;3.70;;;;;;;;;;4914082;29;20035;-86
2021/10/09 01:05:39;;;;;;;7.97;3.78;;;;;;;;;;4915869;29;20107;-87
2021/10/09 01:08:05;;;;;;;7.25;3.88;;;;;;;;;;4924895;29;20067;-87
2021/10/09 01:10:32;;;;;;;7.07;4.13;;;;;;;;;;4920358;29;20028;-87
2021/10/09 01:13:02;;;;;;;8.77;5.72;;;;;;;;;;4900586;29;20040;-86
2021/10/09 01:15:31;;;;;;;6.63;4.70;;;;;;;;;;4916267;29;20060;-86
2021/10/09 01:17:58;;;;;;;11.95;4.30;;;;;;;;;;4923949;29;20796;-86
2021/10/09 01:20:24;;;;;;;11.05;5.65;;;;;;;;;;4923710;29;20124;-85
2021/10/09 01:22:50;;;;;;;12.55;5.03;;;;;;;;;;4915168;29;20528;-85
2021/10/09 01:25:16;;;;;;;10.80;4.95;;;;;;;;;;4918465;29;20027;-86
2021/10/09 01:27:42;;;;;;;10.63;4.95;;;;;;;;;;4917206;29;20042;-87
2021/10/09 01:30:09;;;;;;;7.60;4.70;;;13.60;79.60;;;;;;4917973;29;20020;-86
2021/10/09 01:32:35;;;;;;;11.77;6.20;;;13.50;79.80;;;;;;4922743;29;20043;-86
2021/10/09 01:35:06;;;;;;;11.98;4.68;;;13.50;79.20;;;;;;4907927;29;20024;-87
2021/10/09 01:37:38;;;;;;;8.10;4.10;;;;;;;;;;4920552;29;20048;-88
2021/10/09 01:40:05;;;;;;;8.35;4.53;;;;;;;;;;4910538;29;20446;-86
2021/10/09 01:42:31;;;;;;;13.52;5.00;;;;;;;;;;4905586;29;20051;-86
2021/10/09 01:44:57;;;;;;;8.52;4.85;;;;;;;;;;4923579;29;20047;-87
2021/10/09 01:47:23;;;;;;;7.50;4.35;;;;;;;;;;4925296;29;20504;-87
2021/10/09 01:49:49;;;;;;;8.75;4.70;;;;;;;;;;4929280;29;20083;-87
2021/10/09 01:52:14;;;;;;;9.57;5.47;;;;;;;;;;4914117;29;20120;-87
2021/10/09 01:54:40;;;;;;;8.68;5.22;;;;;;;;;;4910337;29;20516;-86
2021/10/09 01:57:07;;;;;;;7.18;3.70;;;;;;;;;;4921906;29;20642;-85
2021/10/09 01:59:33;;;;;;;7.13;3.63;;;;;;;;;;4906156;29;20524;-87
2021/10/09 02:01:58;;;;;;;6.57;4.97;;;;;;;;;;4905916;29;20056;-86
2021/10/09 02:04:26;;;;;;;7.82;3.80;;;;;;;;;;4924307;29;20042;-85
2021/10/09 02:06:52;;;;;;;;;;;;;;;;;;4921376;29;20044;-86
2021/10/09 02:09:18;;;;;;;6.45;4.00;;;;;;;;;;4906258;29;19915;-86
2021/10/09 02:11:48;;;;;;;7.38;4.97;;;13.10;78.70;;;;;;4921476;29;20036;-86
2021/10/09 02:17:45;;;;;;;10.43;5.63;;;;;;;;;;4915361;29;20070;-86
2021/10/09 02:27:21;;;;;;;8.85;5.53;;;;;;;;;;4902233;29;20561;-86
2021/10/09 02:29:47;;;;;;;6.47;4.28;;;;;;;;;;4906943;29;20028;-84
2021/10/09 02:32:13;;;;;;;8.27;4.82;;;;;;;;;;4912390;29;20516;-86
2021/10/09 02:34:39;;;;;;;9.00;4.72;;;;;;;;;;4900416;29;20048;-86
2021/10/09 02:37:05;;;;;;;6.78;3.65;;;;;;;;;;4901289;29;20566;-86
2021/10/09 02:39:31;;;;;;;9.25;4.72;;;;;;;;;;4901540;29;20024;-86
2021/10/09 02:41:57;;;;;;;17.27;5.38;;;;;;;;;;4903571;29;20032;-86
2021/10/09 02:44:23;;;;;;;8.60;5.13;;;;;;;;;;4908115;29;20155;-86
2021/10/09 02:46:49;;;;;;;9.85;4.15;;;;;;;;;;4890775;29;20036;-87
2021/10/09 02:49:15;;;;;;;9.57;4.82;;;;;;;;;;4903738;29;20506;-86
2021/10/09 02:51:41;;;;;;;8.32;4.40;;;;;;;;;;4902532;29;20037;-87
2021/10/09 02:54:07;;;;;;;8.13;4.55;;;;;;;;;;4884052;29;20499;-87
2021/10/09 02:56:33;;;;;;;12.02;4.80;;;;;;;;;;4904380;29;20075;-87
2021/10/09 02:58:59;;;;;;;6.57;4.25;;;;;;;;;;4888695;29;20028;-86
2021/10/09 03:01:25;;;;;;;10.63;4.90;;;;;;;;;;4883754;29;20050;-86
2021/10/09 03:03:51;;;;;;;7.40;5.13;;;;;;;;;;4899728;29;20036;-85
2021/10/09 03:06:17;;;;;;;11.13;5.60;;;;;;;;;;4904553;29;20383;-87
2021/10/09 03:08:43;;;;;;;13.50;6.38;;;;;;;;;;4905414;29;20093;-86
2021/10/09 03:11:09;;;;;;;6.70;4.53;;;;;;;;;;4884678;29;20553;-87
2021/10/09 03:13:35;;;;;;;12.55;5.63;;;;;;;;;;4898386;29;20391;-86
2021/10/09 03:16:01;;;;;;;9.98;4.97;;;;;;;;;;4882855;29;20051;-86
2021/10/09 03:18:27;;;;;;;9.45;5.10;;;;;;;;;;4902898;29;20032;-86
2021/10/09 03:20:53;;;;;;;9.40;4.78;;;;;;;;;;4887527;29;20653;-87
2021/10/09 03:23:19;;;;;;;9.80;5.22;;;;;;;;;;4901127;29;20425;-86
2021/10/09 03:25:45;;;;;;;10.63;5.07;;;;;;;;;;4881784;29;20039;-86
2021/10/09 03:28:11;;;;;;;12.38;6.10;;;;;;;;;;4882642;29;20520;-86
2021/10/09 03:30:37;;;;;;;7.60;4.72;;;;;;;;;;4883841;29;20029;-87
2021/10/09 03:33:03;;;;;;;10.90;4.65;;;;;;;;;;4904837;29;20151;-86
2021/10/09 03:35:29;;;;;;;8.52;4.97;;;;;;;;;;4900377;29;20041;-86
2021/10/09 03:37:55;;;;;;;12.48;5.82;;;;;;;;;;4887154;29;20390;-87
2021/10/09 03:40:23;;;;;;;11.68;5.30;;;;;;;;;;4901477;29;20039;-86
2021/10/09 03:42:53;;;;;;;7.45;4.32;;;;;;;;;;4899760;29;20044;-87
2021/10/09 03:45:32;;;;;;;12.57;5.72;;;;;;;;;;4898869;29;20028;-87
2021/10/09 03:53:00;;;;;;;13.52;6.32;;;;;;;;;;4905007;29;20044;-85
2021/10/09 03:55:26;;;;;;;13.30;6.28;;;;;;;;;;4881917;29;20028;-88
2021/10/09 03:57:52;;;;;;;9.45;5.03;;;;;;;;;;4898386;29;20482;-86
2021/10/09 04:00:18;;;;;;;7.95;4.97;;;;;;;;;;4900235;29;20036;-85
2021/10/09 04:02:44;;;;;;;11.25;4.95;;;;;;;;;;4906072;29;20107;-87
2021/10/09 04:05:11;;;;;;;9.20;5.00;;;;;;;;;;4898503;29;20047;-86
2021/10/09 04:07:37;;;;;;;6.50;4.50;;;;;;;;;;4896228;29;20063;-87
2021/10/09 04:10:04;;;;;;;5.82;4.05;;;12.60;77.90;;;;;;4889150;29;20475;-86
2021/10/09 04:12:30;;;;;;;;;;;12.70;78.00;;;;;;4883517;29;20032;-87
2021/10/09 04:14:56;;;;;;;7.13;4.18;;;;;;;;;;4902974;29;19975;-87
2021/10/09 04:17:22;;;;;;;6.85;4.60;;;;;;;;;;4919101;29;20099;-87
2021/10/09 04:19:48;;;;;;;8.60;5.38;;;;;;;;;;4923452;29;20047;-86
2021/10/09 04:22:14;;;;;;;8.20;5.20;;;;;;;;;;4919373;29;20115;-87
2021/10/09 04:24:40;;;;;;;8.10;4.90;;;;;;;;;;4913529;29;20103;-86
2021/10/09 04:27:06;;;;;;;9.35;5.07;;;;;;;;;;4904986;29;20032;-86
2021/10/09 04:29:32;;;;;;;8.70;5.13;;;;;;;;;;4915231;29;20036;-86
2021/10/09 04:31:58;;;;;;;8.30;4.50;;;;;;;;;;4925511;29;20556;-86
2021/10/09 04:34:24;;;;;;;10.85;5.93;;;;;;;;;;4914910;29;20031;-87
2021/10/09 04:36:50;;;;;;;7.65;5.22;;;;;;;;;;4913927;29;20056;-87
2021/10/09 04:39:16;;;;;;;7.68;5.18;;;;;;;;;;4899452;29;20030;-87
2021/10/09 04:41:43;;;;;;;11.25;5.18;;;;;;;;;;4900778;29;20024;-86
2021/10/09 04:44:08;;;;;;;9.18;5.82;;;;;;;;;;4921103;29;20413;-86
2021/10/09 04:46:34;;;;;;;13.15;6.03;;;;;;;;;;4914602;29;20035;-87
2021/10/09 04:49:00;;;;;;;9.30;4.55;;;;;;;;;;4918043;29;20083;-86
2021/10/09 04:51:27;;;;;;;9.77;5.55;;;;;;;;;;4900636;29;20451;-87
2021/10/09 04:53:53;;;;;;;8.38;5.00;;;;;;;;;;4925703;29;20079;-87
2021/10/09 04:56:19;;;;;;;14.65;5.20;;;;;;;;;;4921761;29;20028;-86
2021/10/09 04:58:45;;;;;;;17.17;5.07;;;;;;;;;;4916252;29;20501;-87
2021/10/09 05:01:11;;;;;;;16.67;5.28;;;;;;;;;;4911947;29;20024;-85
2021/10/09 05:03:37;;;;;;;11.48;5.32;;;;;;;;;;4924245;29;20032;-87
2021/10/09 05:06:03;;;;;;;8.70;5.40;;;;;;;;;;4905163;29;20729;-87
2021/10/09 05:08:29;;;;;;;16.63;4.90;;;;;;;;;;4920597;29;20044;-86
2021/10/09 05:10:57;;;;;;;7.68;4.95;;;;;;;;;;4925105;29;20038;-86
2021/10/09 05:13:23;;;;;;;8.73;5.18;;;;;;;;;;4903768;29;20130;-86
2021/10/09 05:15:49;;;;;;;9.35;5.28;;;;;;;;;;4921571;29;20039;-88
2021/10/09 05:18:15;;;;;;;8.77;4.85;;;;;;;;;;4927710;29;20031;-86
2021/10/09 05:20:41;;;;;;;13.00;5.20;;;;;;;;;;4903635;29;20127;-86
2021/10/09 05:23:07;;;;;;;10.05;5.65;;;;;;;;;;4927327;29;20039;-87
2021/10/09 05:25:34;;;;;;;8.60;4.38;;;;;;;;;;4908800;29;20118;-87
2021/10/09 05:28:09;;;;;;;7.88;4.40;;;;;;;;;;4919002;29;20039;-87
2021/10/09 05:30:35;;;;;;;9.45;4.65;;;;;;;;;;4926990;29;20036;-86
2021/10/09 05:33:15;;;;;;;10.75;6.43;;;12.10;77.00;;;;;;4929208;29;20058;-86
2021/10/09 05:35:41;;;;;;;7.82;5.38;;;;;;;;;;4919337;29;20051;-85
2021/10/09 05:38:08;;;;;;;8.50;4.15;;;;;;;;;;4924886;29;20511;-87
2021/10/09 05:40:34;;;;;;;9.27;6.00;;;;;;;;;;4924252;29;20032;-86
2021/10/09 05:43:00;;;;;;;11.00;5.25;;;;;;;;;;4906772;29;20111;-87
2021/10/09 05:45:26;;;;;;;13.70;4.43;;;;;;;;;;4921715;29;20031;-86
2021/10/09 05:47:52;;;;;;;8.82;4.38;;;;;;;;;;4917345;29;20539;-86
2021/10/09 05:50:23;;;;;;;11.73;6.25;;;12.10;78.10;;;;;;4902335;29;20031;-86
2021/10/09 05:55:27;;;;;;;7.40;4.55;;;;;;;;;;4917781;29;20027;-86
2021/10/09 05:58:06;;;;;;;8.45;4.55;;;;;;;;;;4914137;29;20055;-86
2021/10/09 06:00:51;;;;;;;7.63;4.70;;;;;;;;;;4910061;29;20028;-86
2021/10/09 06:25:44;;;;;;;7.38;4.78;;;;;;;;;;4912429;29;20573;-86
2021/10/09 06:59:59;;;;;;;16.83;5.57;;;;;;;;;;4908942;29;20078;-86
2021/10/09 07:02:25;;;;;;;11.45;6.53;;;;;;;;;;4914825;29;20798;-86
2021/10/09 07:04:51;;;;;;;10.77;5.13;;;;;;;;;;4915137;29;20028;-88
2021/10/09 07:07:19;;;;;;;11.73;5.70;;;;;;;;;;4913775;29;20035;-87
2021/10/09 07:09:45;;;;;;;11.40;5.90;;;;;;;;;;4894092;29;20039;-87
2021/10/09 07:12:11;;;;;;;13.38;7.60;;;;;;;;;;4905211;29;20031;-87
2021/10/09 07:14:37;;;;;;;14.80;6.53;;;;;;;;;;4872144;29;20028;-87
2021/10/09 07:17:04;;;;;;;12.30;6.75;;;;;;;;;;4918400;29;20063;-89
2021/10/09 07:19:30;;;;;;;15.73;6.75;;;;;;;;;;4897273;29;20035;-87
2021/10/09 07:21:56;;;;;;;15.80;7.05;;;;;;;;;;4893805;29;20417;-87
2021/10/09 07:24:22;;;;;;;12.75;6.90;;;;;;;;;;4914047;29;20052;-88
2021/10/09 07:26:48;;;;;;;17.83;7.45;;;;;;;;;;4908416;29;20043;-88
2021/10/09 07:29:13;;;;;;;13.82;7.88;;;;;;;;;;4926819;29;20027;-87
2021/10/09 07:31:40;;;;;;;18.42;8.75;;;;;;;;;;4922171;29;20090;-87
2021/10/09 07:34:06;;;;;;;20.15;6.55;;;;;;;;;;4921817;29;20118;-88
2021/10/09 07:36:32;;;;;;;14.32;6.32;;;;;;;;;;4924266;29;20127;-87
2021/10/09 07:38:58;;;;;;;17.38;7.82;;;;;;;;;;4920317;29;20036;-86
2021/10/09 07:41:24;;;;;;;12.32;7.13;;;;;;;;;;4920435;29;20058;-86
2021/10/09 07:43:50;;;;;;;22.08;7.22;;;;;;;;;;4921425;29;20047;-87
2021/10/09 07:46:17;;;;;;;17.67;7.25;;;;;;;;;;4916722;29;20509;-86
2021/10/09 07:48:43;;;;;;;14.20;6.47;;;;;;;;;;4904684;29;20032;-87
2021/10/09 07:51:09;;;;;;;14.35;6.97;;;;;;;;;;4917671;29;20506;-87
2021/10/09 07:53:35;;;;;;;17.90;8.18;;;;;;;;;;4925987;29;20060;-88
2021/10/09 07:56:01;;;;;;;23.70;8.35;;;;;;;;;;4923959;29;20067;-88
2021/10/09 07:58:28;;;;;;;20.17;8.55;;;;;;;;;;4902049;29;20066;-87
2021/10/09 08:00:54;;;;;;;16.13;8.07;;;;;;;;;;4919259;29;20028;-86
2021/10/09 08:03:24;;;;;;;17.35;7.80;;;;;;;;;;4903732;29;20039;-86
2021/10/09 08:05:51;;;;;;;19.75;8.57;;;;;;;;;;4922400;29;20092;-88
2021/10/09 08:08:17;;;;;;;19.25;8.10;;;;;;;;;;4919161;29;20039;-86
2021/10/09 08:10:43;;;;;;;18.67;7.75;;;;;;;;;;4919936;29;20031;-86
2021/10/09 08:13:09;;;;;;;22.58;8.70;;;;;;;;;;4920911;29;20099;-87
2021/10/09 08:15:35;;;;;;;16.92;8.20;;;;;;;;;;4917618;29;20032;-87
2021/10/09 08:18:01;;;;;;;23.35;8.75;;;;;;;;;;4925478;29;20088;-87
2021/10/09 08:20:27;;;;;;;27.00;9.73;;;;;;;;;;4904471;29;20469;-86
2021/10/09 08:23:00;;;;;;;21.55;8.73;;;;;;;;;;4916161;29;20056;-87
2021/10/09 08:38:47;;;;;;;20.08;7.32;;;;;;;;;;4840162;29;20061;-88
2021/10/09 08:41:13;;;;;;;;;;;13.70;79.20;;;;;;4850925;29;20049;-86
2021/10/09 08:43:48;;;;;;;15.38;7.80;;;;;;;;;;4845507;29;19927;-87
2021/10/09 08:46:14;;;;;;;18.90;9.32;;;;;;;;;;4846864;29;20048;-87
2021/10/09 08:48:41;;;;;;;19.38;7.65;;;;;;;;;;4852432;29;20041;-87
2021/10/09 08:51:07;;;;;;;;;;;13.90;78.90;;;;;;4846246;29;20044;-87
2021/10/09 08:53:40;;;;;;;21.80;9.27;;;13.90;85.90;;;;;;4845211;29;19916;-87
2021/10/09 08:56:06;;;;;;;21.98;8.90;;;;;;;;;;4840588;29;20422;-87
2021/10/09 08:58:43;;;;;;;16.40;8.18;;;19.00;82.00;;;;;;4843270;29;20037;-87
2021/10/09 09:01:25;;;;;;;19.30;7.50;;;13.90;78.70;;;;;;4841822;29;20052;-86
2021/10/09 09:04:08;;;;;;;14.70;8.25;;;;;;;;;;4840345;29;20042;-87
2021/10/09 09:41:46;;;;;;;21.67;9.77;;;14.40;92.70;;;;;;4850300;29;20050;-87
2021/10/09 09:44:13;;;;;;;19.13;8.60;;;14.40;76.70;;;;;;4834410;29;20497;-87
2021/10/09 09:46:39;;;;;;;23.33;10.05;;;;;;;;;;4843145;29;20041;-87
2021/10/09 09:49:06;;;;;;;18.38;8.20;;;;;;;;;;4845350;29;20053;-87
2021/10/09 09:51:37;;;;;;;18.50;7.90;;;14.50;76.50;;;;;;4842124;29;20112;-87
2021/10/09 09:54:03;;;;;;;20.90;7.63;;;;;;;;;;4847629;29;20091;-87
2021/10/09 09:56:29;;;;;;;19.58;7.40;;;14.40;76.50;;;;;;4829694;29;20589;-87
2021/10/09 09:58:58;;;;;;;17.23;8.00;;;;;;;;;;4850382;29;20503;-87
2021/10/09 10:01:25;;;;;;;12.70;7.68;;;;;;;;;;4827581;29;20076;-88
2021/10/09 10:03:56;;;;;;;23.95;8.48;;;14.30;76.30;;;;;;4829123;29;20551;-87
2021/10/09 10:06:22;;;;;;;20.60;7.45;;;;;;;;;;4846617;29;20025;-86
2021/10/09 10:08:48;;;;;;;16.65;7.50;;;;;;;;;;4895448;29;20047;-86
2021/10/09 10:11:18;;;;;;;17.33;7.97;;;14.40;76.10;;;;;;4919812;29;20127;-87
2021/10/09 10:13:45;;;;;;;17.02;7.13;;;14.40;75.70;;;;;;4924894;29;20659;-87
2021/10/09 10:16:12;;;;;;;14.88;7.95;;;14.40;73.00;;;;;;4918402;29;20647;-87
2021/10/09 10:18:46;;;;;;;14.27;5.93;;;14.30;71.80;;;;;;4907534;29;20059;-87
2021/10/09 10:21:14;;;;;;;16.95;8.18;;;14.40;72.40;;;;;;4915072;29;20041;-86
2021/10/09 10:23:42;;;;;;;12.25;6.15;;;14.50;72.10;;;;;;4926186;29;20095;-87
2021/10/09 10:26:20;;;;;;;14.23;6.60;;;;;;;;;;4929667;29;20088;-87
2021/10/09 10:28:55;;;;;;;11.40;5.38;;;14.50;71.60;;;;;;4906031;29;20040;-86
2021/10/09 10:31:22;;;;;;;13.23;5.63;;;;;;;;;;4917757;29;20115;-88
2021/10/09 10:33:56;;;;;;;13.30;5.63;;;;;;;;;;4909741;29;20036;-87
2021/10/09 10:36:44;;;;;;;20.20;6.88;;;14.60;70.90;;;;;;4924803;29;20039;-87
2021/10/09 10:39:11;;;;;;;17.17;5.80;;;;;;;;;;4919285;29;20054;-87
2021/10/09 10:41:45;;;;;;;11.52;6.30;;;;;;;;;;4922514;29;20032;-86
2021/10/09 10:44:42;;;;;;;12.80;6.18;;;14.60;71.10;;;;;;4925484;29;20101;-87
2021/10/09 10:47:45;;;;;;;14.38;6.88;;;14.50;71.10;;;;;;4901471;29;20032;-86
2021/10/09 10:50:39;;;;;;;14.48;7.38;;;14.70;72.00;;;;;;4928529;29;20032;-85
2021/10/09 10:53:08;;;;;;;18.25;7.55;;;;;;;;;;4903934;29;20028;-86
2021/10/09 10:56:08;;;;;;;18.40;6.20;;;14.80;71.70;;;;;;4921585;29;20040;-87
2021/10/09 10:58:34;;;;;;;16.80;6.88;;;;;;;;;;4918472;29;20640;-86
2021/10/09 11:01:23;;;;;;;15.88;6.63;;;14.90;70.70;;;;;;4914151;29;20032;-87
2021/10/09 11:03:58;;;;;;;13.75;6.78;;;14.90;70.60;;;;;;4916401;29;20047;-87
2021/10/09 11:06:26;;;;;;;17.73;8.25;;;14.90;69.80;;;;;;4921513;29;20036;-86
2021/10/09 11:08:53;;;;;;;19.77;8.50;;;;;;;;;;4919774;29;20032;-87
2021/10/09 11:11:37;;;;;;;19.13;8.55;;;14.90;69.70;;;;;;4922155;29;20500;-87
2021/10/09 11:14:03;;;;;;;14.10;6.57;;;;;;;;;;4926347;29;20153;-87
2021/10/09 11:16:30;;;;;;;13.07;6.63;;;;;;;;;;4903819;29;20106;-86
2021/10/09 11:18:56;;;;;;;15.93;7.80;;;;;;;;;;4923099;29;20032;-86
2021/10/09 11:21:23;;;;;;;11.73;7.60;;;;;;;;;;4918525;29;20028;-87
2021/10/09 11:23:55;;;;;;;12.35;5.57;;;14.80;70.30;;;;;;4919827;29;20032;-87
2021/10/09 11:26:21;;;;;;;13.07;5.93;;;;;;;;;;4924409;29;20401;-86
2021/10/09 11:29:03;;;;;;;11.73;5.83;;;14.80;69.80;;;;;;4922383;29;20059;-87
2021/10/09 11:31:29;;;;;;;13.52;4.47;;;;;;;;;;4897039;29;20036;-88
2021/10/09 11:34:02;;;;;;;11.68;5.45;;;14.90;69.20;;;;;;4914881;29;20035;-86
2021/10/09 11:36:28;;;;;;;13.55;6.75;;;;;;;;;;4903010;29;20035;-86
2021/10/09 11:39:06;;;;;;;13.85;7.22;;;14.90;69.70;;;;;;4919191;29;20812;-87
2021/10/09 11:41:32;;;;;;;16.73;6.85;;;;;;;;;;4916624;29;20044;-86
2021/10/09 11:44:08;;;;;;;12.80;6.18;;;;;;;;;;4911603;29;20490;-86
2021/10/09 11:47:19;;;;;;;9.98;4.78;;;15.00;68.70;;;;;;4911572;29;20039;-87
2021/10/09 11:55:22;;;;;;;8.82;5.35;;;15.00;69.20;;;;;;4910499;29;20038;-86
2021/10/09 11:57:49;;;;;;;13.57;5.63;;;;;;;;;;4910831;29;20048;-85
2021/10/09 12:00:29;;;;;;;13.73;6.33;;;15.10;67.30;;;;;;4912654;29;20046;-86
2021/10/09 12:02:56;;;;;;;10.05;5.00;;;15.00;68.40;;;;;;4916432;29;20323;-86
2021/10/09 12:05:22;;;;;;;13.70;5.55;;;;;;;;;;4921455;29;20044;-86
2021/10/09 12:08:41;;;;;;;15.40;6.28;;;15.10;68.10;;;;;;4917525;29;20565;-86
2021/10/09 12:11:13;;;;;;;9.43;5.38;;;15.10;67.30;;;;;;4907090;29;20055;-86
2021/10/09 12:13:56;;;;;;;21.77;6.40;;;15.10;68.10;;;;;;4911152;29;20036;-87
2021/10/09 12:16:23;;;;;;;14.07;5.55;;;15.10;67.80;;;;;;4911149;29;20051;-85
2021/10/09 12:18:58;;;;;;;11.27;5.78;;;15.10;69.10;;;;;;4896268;29;20044;-87
2021/10/09 12:21:29;;;;;;;11.18;5.55;;;15.10;69.30;;;;;;4910909;29;20035;-86
2021/10/09 12:23:56;;;;;;;14.82;6.45;;;16.50;69.50;;;;;;4896814;29;20104;-86
2021/10/09 12:26:23;;;;;;;10.80;5.78;;;15.20;68.50;;;;;;4911171;29;20024;-87
2021/10/09 12:29:09;;;;;;;11.55;5.55;;;15.20;68.50;;;;;;4900977;29;20449;-86
2021/10/09 12:31:36;;;;;;;12.82;5.57;;;;;;;;;;4910614;29;20028;-86
2021/10/09 12:34:02;;;;;;;9.02;5.10;;;;;;;;;;4912218;29;20048;-86
2021/10/09 12:36:40;;;;;;;12.25;5.78;;;;;;;;;;4911138;29;20590;-87
2021/10/09 12:39:22;;;;;;;14.48;6.32;;;;;;;;;;4912593;29;20494;-86
2021/10/09 12:41:49;;;;;;;13.10;6.50;;;;;;;;;;4892742;29;20043;-86
2021/10/09 12:44:15;;;;;;;14.90;7.00;;;;;;;;;;4913491;29;20029;-86
2021/10/09 12:46:41;;;;;;;15.18;6.53;;;;;;;;;;4894242;29;20032;-87
2021/10/09 12:49:07;;;;;;;10.38;5.97;;;;;;;;;;4915440;29;20031;-86
2021/10/09 12:51:33;;;;;;;11.75;6.50;;;;;;;;;;4890016;29;20519;-86
2021/10/09 12:54:04;;;;;;;12.27;6.50;;;;;;;;;;4911242;29;20139;-86
2021/10/09 12:56:31;;;;;;;9.73;5.60;;;;;;;;;;4909754;29;20048;-87
2021/10/09 12:58:57;;;;;;;10.70;6.18;;;;;;;;;;4923760;29;20024;-89
2021/10/09 13:01:23;;;;;;;12.18;5.88;;;;;;;;;;4913689;29;20129;-87
2021/10/09 13:03:48;;;;;;;17.85;6.32;;;;;;;;;;4919038;29;20469;-90
2021/10/09 13:06:14;;;;;;;10.73;6.60;;;;;;;;;;4914645;29;20028;-86
2021/10/09 13:08:40;;;;;;;10.90;6.40;;;;;;;;;;4915184;29;20168;-88
2021/10/09 13:11:06;;;;;;;11.43;5.97;;;;;;;;;;4914524;29;20031;-89
2021/10/09 13:13:32;;;;;;;9.40;6.40;;;;;;;;;;4895693;29;20400;-87
2021/10/09 13:15:58;;;;;;;10.95;6.28;;;;;;;;;;4912760;29;20058;-89
2021/10/09 13:18:24;;;;;;;11.23;5.82;;;;;;;;;;4913123;29;20112;-88
2021/10/09 13:20:50;;;;;;;11.40;7.10;;;;;;;;;;4913583;29;20040;-89
2021/10/09 13:23:16;;;;;;;10.27;6.05;;;;;;;;;;4921105;29;20030;-87
2021/10/09 13:25:42;;;;;;;14.77;6.50;;;;;;;;;;4925795;29;20122;-88
2021/10/09 13:28:09;;;;;;;14.05;6.28;;;;;;;;;;4923086;29;20506;-89
2021/10/09 13:30:35;;;;;;;14.80;6.68;;;;;;;;;;4926472;29;20036;-89
2021/10/09 13:33:01;;;;;;;12.05;5.30;;;;;;;;;;4922258;29;20107;-88
2021/10/09 13:35:27;;;;;;;11.73;5.50;;;;;;;;;;4929416;29;20034;-88
2021/10/09 13:37:57;;;;;;;8.50;4.90;;;15.50;66.60;;;;;;4917621;29;20561;-88
2021/10/09 13:40:23;;;;;;;11.55;5.57;;;;;;;;;;4921980;29;20054;-88
2021/10/09 13:42:49;;;;;;;12.70;5.85;;;;;;;;;;4918290;29;20097;-88
2021/10/09 13:45:15;;;;;;;15.05;6.35;;;;;;;;;;4925905;29;20028;-88
2021/10/09 13:47:42;;;;;;;14.70;6.80;;;;;;;;;;4930599;29;20026;-87
2021/10/09 13:50:08;;;;;;;10.82;5.35;;;;;;;;;;4926061;29;20042;-88
2021/10/09 13:52:34;;;;;;;17.58;9.15;;;;;;;;;;4920122;29;20092;-89
2021/10/09 13:55:00;;;;;;;16.10;5.78;;;;;;;;;;4923857;29;20689;-89
2021/10/09 13:57:26;;;;;;;11.50;6.95;;;;;;;;;;4907842;29;20142;-88
2021/10/09 13:59:52;;;;;;;21.38;7.80;;;;;;;;;;4927412;29;20047;-87
2021/10/09 14:02:18;;;;;;;19.50;8.68;;;;;;;;;;4927804;29;20027;-88
2021/10/09 14:04:44;;;;;;;20.23;7.45;;;;;;;;;;4903641;29;20119;-88
2021/10/09 14:07:10;;;;;;;16.02;7.53;;;;;;;;;;4916171;29;20040;-88
2021/10/09 14:09:36;;;;;;;15.38;7.00;;;;;;;;;;4925889;29;20039;-88
2021/10/09 14:12:02;;;;;;;12.00;6.90;;;;;;;;;;4907497;29;20498;-87
2021/10/09 14:14:28;;;;;;;11.70;6.28;;;;;;;;;;4929780;29;20036;-89
2021/10/09 14:16:57;;;;;;;19.23;8.60;;;;;;;;;;4918443;29;20067;-87
2021/10/09 14:19:23;;;;;;;13.73;8.05;;;;;;;;;;4927609;29;20556;-88
2021/10/09 14:21:49;;;;;;;16.50;8.00;;;;;;;;;;4903703;29;20507;-88
2021/10/09 14:24:19;;;;;;;15.00;6.38;;;;;;;;;;4927412;29;20032;-89
2021/10/09 14:26:45;;;;;;;16.15;8.05;;;;;;;;;;4920795;29;20081;-89
2021/10/09 14:29:11;;;;;;;15.23;7.85;;;;;;;;;;4925272;29;20080;-87
2021/10/09 14:31:37;;;;;;;16.13;8.48;;;;;;;;;;4922999;29;20031;-88
2021/10/09 14:34:03;;;;;;;17.13;8.63;;;;;;;;;;4901095;29;21141;-86
2021/10/09 14:36:29;;;;;;;14.35;6.43;;;;;;;;;;4926414;29;20083;-88
2021/10/09 14:38:55;;;;;;;19.08;7.40;;;;;;;;;;4904216;29;20032;-89
2021/10/09 14:41:22;;;;;;;15.75;8.35;;;;;;;;;;4903924;29;20575;-88
2021/10/09 14:43:48;;;;;;;17.02;7.55;;;;;;;;;;4907738;29;20059;-88
2021/10/09 14:49:01;;;;;;;18.75;8.55;;;;;;;;;;4924874;29;20043;-88
2021/10/09 15:19:07;;;;;;;16.85;6.40;;;;;;;;;;4845044;29;20116;-90
2021/10/09 15:21:33;;;;;;;16.05;7.05;;;;;;;;;;4841734;29;20580;-90
2021/10/09 15:23:59;;;;;;;11.52;5.82;;;;;;;;;;4845328;29;20140;-88
2021/10/09 15:26:25;;;;;;;14.38;6.18;;;;;;;;;;4836000;29;20046;-87
2021/10/09 15:28:51;;;;;;;10.00;6.03;;;;;;;;;;4839733;29;20520;-89
2021/10/09 15:31:17;;;;;;;19.58;5.93;;;;;;;;;;4835257;29;20029;-88
2021/10/09 15:33:43;;;;;;;15.20;8.20;;;;;;;;;;4837352;29;20614;-88
2021/10/09 15:36:09;;;;;;;17.70;8.18;;;;;;;;;;4835936;29;20091;-88
2021/10/09 15:38:35;;;;;;;26.45;7.88;;;;;;;;;;4839789;29;20045;-87
2021/10/09 15:41:01;;;;;;;16.85;6.40;;;;;;;;;;4853118;29;20461;-88
2021/10/09 15:43:27;;;;;;;15.18;6.85;;;;;;;;;;4853024;29;20041;-88
2021/10/09 15:45:54;;;;;;;13.38;6.80;;;;;;;;;;4850745;29;20097;-89
2021/10/09 15:48:21;;;;;;;14.80;7.15;;;;;;;;;;4841322;29;20135;-90
2021/10/09 15:50:47;;;;;;;15.68;7.90;;;;;;;;;;4856871;29;20034;-89
2021/10/09 15:53:15;;;;;;;16.45;6.53;;;;;;;;;;4874813;29;20090;-90
2021/10/09 15:55:41;;;;;;;21.92;7.00;;;;;;;;;;4898907;29;20020;-86
2021/10/09 15:58:08;;;;;;;17.75;6.70;;;;;;;;;;4911025;29;20103;-85
2021/10/09 16:00:34;;;;;;;15.35;6.80;;;;;;;;;;4913095;29;20028;-89
2021/10/09 16:03:00;;;;;;;15.18;6.60;;;;;;;;;;4898140;29;20596;-89
2021/10/09 16:05:26;;;;;;;16.52;7.90;;;;;;;;;;4914696;29;20099;-89
2021/10/09 16:07:53;;;;;;;16.10;8.52;;;;;;;;;;4922471;29;20052;-88
2021/10/09 16:10:19;;;;;;;19.65;7.15;;;;;;;;;;4914122;29;20565;-89
2021/10/09 16:12:45;;;;;;;15.55;6.88;;;;;;;;;;4921534;29;20071;-88
2021/10/09 16:15:11;;;;;;;16.58;7.18;;;;;;;;;;4918392;29;20051;-87
2021/10/09 16:17:38;;;;;;;13.05;6.57;;;;;;;;;;4908491;29;20064;-89
2021/10/09 16:20:05;;;;;;;13.13;6.85;;;;;;;;;;4909188;29;20094;-88
2021/10/09 16:22:31;;;;;;;14.35;7.40;;;;;;;;;;4886119;29;20048;-88
2021/10/09 16:24:57;;;;;;;16.52;6.65;;;;;;;;;;4907316;29;20036;-90
2021/10/09 16:27:23;;;;;;;13.43;8.30;;;;;;;;;;4905676;29;20609;-90
2021/10/09 16:29:49;;;;;;;16.42;6.93;;;;;;;;;;4902699;29;20403;-90
2021/10/09 16:32:17;;;;;;;14.82;8.02;;;14.40;76.90;;;;;;4896785;29;20068;-89
2021/10/09 16:34:43;;;;;;;22.40;7.30;;;;;;;;;;4904217;29;20032;-88
2021/10/09 16:37:09;;;;;;;13.48;7.72;;;;;;;;;;4907220;29;20055;-90
2021/10/09 16:39:35;;;;;;;13.82;7.00;;;;;;;;;;4900946;29;20020;-88
2021/10/09 16:42:01;;;;;;;23.60;9.30;;;;;;;;;;4909695;29;20036;-89
2021/10/09 16:44:27;;;;;;;18.95;8.05;;;;;;;;;;4890839;29;20505;-89
2021/10/09 16:46:53;;;;;;;21.83;9.88;;;;;;;;;;4912878;29;20129;-89
2021/10/09 16:49:20;;;;;;;13.85;7.22;;;14.20;78.00;;;;;;4900091;29;20051;-89
2021/10/09 16:51:47;;;;;;;13.47;7.07;;;14.20;78.60;;;;;;4885998;29;20028;-88
2021/10/09 16:54:14;;;;;;;12.07;7.93;;;;;;;;;;4903973;29;20031;-89
2021/10/09 16:56:40;;;;;;;15.57;6.03;;;;;;;;;;4904586;29;20056;-90